createdAt,value
2023-04-18T00:04:03.331Z,72
2023-04-18T00:16:03.137Z,72
2023-04-18T00:28:03.050Z,72
2023-04-18T00:40:03.212Z,72
2023-04-18T00:52:03.187Z,72
2023-04-18T01:04:03.173Z,72
2023-04-18T01:16:03.145Z,72
2023-04-18T01:28:03.225Z,72.5
2023-04-18T01:40:03.206Z,72.5
2023-04-18T01:52:03.144Z,72.5
2023-04-18T02:04:03.330Z,72.5
2023-04-18T02:16:03.333Z,72.5
2023-04-18T02:28:03.222Z,72
2023-04-18T02:40:03.187Z,72
2023-04-18T02:52:03.341Z,71.5
2023-04-18T03:04:03.269Z,71.5
2023-04-18T03:16:03.385Z,71
2023-04-18T03:28:03.217Z,71
2023-04-18T03:40:03.427Z,71
2023-04-18T03:52:03.318Z,71
2023-04-18T04:04:03.350Z,71
2023-04-18T04:16:03.486Z,71
2023-04-18T04:28:03.397Z,70.5
2023-04-18T04:40:03.331Z,70.5
2023-04-18T04:52:03.335Z,70.5
2023-04-18T05:04:03.602Z,70
2023-04-18T05:16:03.484Z,70
2023-04-18T05:28:03.386Z,70
2023-04-18T05:40:03.486Z,70
2023-04-18T05:52:03.494Z,70
2023-04-18T06:04:03.668Z,70
2023-04-18T06:16:03.465Z,70.5
2023-04-18T06:28:03.603Z,70.5
2023-04-18T06:40:03.517Z,70.5
2023-04-18T06:52:03.498Z,70
2023-04-18T07:04:03.478Z,70
2023-04-18T07:16:04.497Z,70
2023-04-18T07:28:03.522Z,70.5
2023-04-18T07:40:03.527Z,70
2023-04-18T07:52:03.652Z,70
2023-04-18T08:04:04.059Z,69
2023-04-18T08:16:03.619Z,68.5
2023-04-18T08:28:03.592Z,69
2023-04-18T08:40:03.589Z,69
2023-04-18T08:52:03.776Z,68.5
2023-04-18T09:04:03.786Z,68.5
2023-04-18T09:16:03.675Z,68
2023-04-18T09:28:03.846Z,68
2023-04-18T09:40:03.654Z,67
2023-04-18T09:52:03.788Z,64.5
2023-04-18T10:04:03.834Z,65.5
2023-04-18T10:16:03.685Z,61
2023-04-18T10:28:03.669Z,60
2023-04-18T10:40:03.758Z,61
2023-04-18T10:52:03.794Z,60.5
2023-04-18T11:04:03.772Z,58
2023-04-18T11:16:03.900Z,58
2023-04-18T11:28:03.832Z,57
2023-04-18T11:40:03.799Z,55
2023-04-18T11:52:03.756Z,53
2023-04-18T12:04:04.292Z,51
2023-04-18T12:16:03.886Z,49
2023-04-18T12:28:03.866Z,47.5
2023-04-18T12:40:03.794Z,46.5
2023-04-18T12:52:03.944Z,44.5
2023-04-18T13:04:11.364Z,43
2023-04-18T13:16:03.983Z,42
2023-04-18T13:28:03.863Z,41.5
2023-04-18T13:40:03.828Z,40
2023-04-18T13:52:04.007Z,40.5
2023-04-18T14:04:04.199Z,39
2023-04-18T14:16:04.016Z,38
2023-04-18T14:28:03.994Z,38
2023-04-18T14:40:03.925Z,37.5
2023-04-18T14:52:04.163Z,36.5
2023-04-18T15:04:04.217Z,37
2023-04-18T15:16:04.055Z,36.5
2023-04-18T15:28:03.960Z,36.5
2023-04-18T15:40:04.258Z,36.5
2023-04-18T15:52:04.137Z,36.5
2023-04-18T16:04:04.257Z,36.5
2023-04-18T16:16:04.022Z,37.5
2023-04-18T16:28:04.146Z,37
2023-04-18T16:40:04.161Z,37
2023-04-18T16:52:04.184Z,37
2023-04-18T17:04:04.220Z,37
2023-04-18T17:16:04.107Z,37
2023-04-18T17:28:04.241Z,37.5
2023-04-18T17:40:04.314Z,38.5
2023-04-18T17:52:04.453Z,39
2023-04-18T18:04:04.473Z,40
2023-04-18T18:16:04.285Z,41.5
2023-04-18T18:28:04.277Z,43
2023-04-18T18:40:04.177Z,45
2023-04-18T18:52:04.180Z,46
2023-04-18T19:04:04.438Z,47.5
2023-04-18T19:16:04.306Z,46
2023-04-18T19:28:04.250Z,47.5
2023-04-18T19:40:04.396Z,49
2023-04-18T19:52:04.343Z,50
2023-04-18T20:04:04.536Z,51
2023-04-18T20:16:05.237Z,51.5
2023-04-18T20:28:04.482Z,52.5
2023-04-18T20:40:04.280Z,53
2023-04-18T20:52:05.034Z,54
2023-04-18T21:04:05.074Z,55.5
2023-04-18T21:16:04.413Z,56.5
2023-04-18T21:28:04.339Z,57
2023-04-18T21:40:04.341Z,57.5
2023-04-18T21:52:04.488Z,58.5
2023-04-18T22:04:04.604Z,59
2023-04-18T22:16:04.353Z,59.5
2023-04-18T22:28:04.501Z,59.5
2023-04-18T22:40:04.446Z,60
2023-04-18T22:52:04.480Z,60
2023-04-18T23:04:04.553Z,60.5
2023-04-18T23:16:04.575Z,60.5
2023-04-18T23:28:04.536Z,60.5
2023-04-18T23:40:04.485Z,61
2023-04-18T23:52:04.769Z,61
